Aérodrome :
LOGIN :

S'inscrire | Disclaimer

   EN    FR    IT 

 










Légende :    VFR   VFR Marginal   IFR   IFR Intensif   IFR Très Intensif
Visi : 
Plafond : 
>= 8 km
>= 3000ft
5 à 8 km
1000 à 3000 ft
1500m à 5 km
500 à 1000 ft
800 à 1500m
200 à 500 ft
< 800m
< 200 ft
Symboles :   Orages  Brouillard  Fortes neiges  Fortes précipitations  Vent > 20 kt
SIGMETs :   Divers  Orages  Givrage  Turbulence  Onde Orograph.  Cendres Volcan.







- Altitude de l'aérodrome : 0 ft


ETEB - Ansbach Army Heliport

DERNIER METAR :
  • 141956Z AUTO 07005KT 9999 OVC022 M A3019 RMK AO2 SLPNO ALSTG ESTMD $

METARs EXPIRÉS :
  • 141856Z AUTO 08007KT 9999 OVC023 M A3017 RMK AO2 SLPNO ALSTG ESTMD $
  • 141756Z AUTO 08005KT 9999 OVC024 M A3016 RMK AO2 SLPNO ALSTG ESTMD 11018 21021 52013 $

TAF AMD TAF ETEB
Valide du 14 à 20h jusqu'au 15 à 20h UTC


142019Z 1420/1520 VRB06KT 9999 OVC021 QNH3010INS
BECMG 1422/1423 VRB06KT 9999 BKN023 620231 QNH3018INS
BECMG 1515/1516 VRB06KT 9999 SCT018 QNH3016INS TXM01/1513Z TNM03/1507Z LAST NO AMDS AFT 1420 NEXT 1706
Pas de NOTAMs connus pour ce terrain.



MET'MAP, la Météo Aéronautique d'un coup d'oeil ! - Copyright ORBIFLY Décembre 2007 - Disclaimer

ORBIFLY MET'MAP TEAM :

Programmation & Développement : Alexandra Zaïnal
Conception & Développement : Baudouin d'Aumeries
Co-Programmation & Développement : Marc-Olivier Méhu
Soutien technique & logistique : Manuel Goepfert

Contact : metmap@orbifly.com




SOURCES & CREDITS :

   NOAA